F/V Pasiphae 2 — FMFN — position and weather

sailwx.info

Track history (hours):
 
Tides and Currents Weather Stations Pressure Air Temp Water Temp Dewpoint Dewpoint Depression Visibility Wind Speed Wind Dir Waves Ship Positions

F/V Pasiphae 2

Last reported at 2015-May-30 01:34 UTC. Time now 2015-May-30 14:41 UTC.
Position N 47°44' W 003°22'.

Length 14 m.

Type: Fishing. MMSI: 228224800.

Date/timePositionNaut miles runAvg speedWind from/ knotsBaromVisibWave heightAir tempDewpointWater temp
2015-May-30 01:34N 47°44' W 003°22'0 0.1
2015-May-30 00:33N 47°44' W 003°22'2 1.6
2015-May-29 23:33N 47°42' W 003°22'9 8.7
2015-May-29 22:34N 47°34' W 003°23'8 8.4
2015-May-29 21:34N 47°25' W 003°24'5 0.3
2015-May-29 03:32N 47°22' W 003°29'9 9.2
2015-May-29 02:33N 47°30' W 003°25'9 9.2
2015-May-29 01:33N 47°39' W 003°22'4 4.5
2015-May-29 00:33N 47°44' W 003°22'5 5.3
2015-May-28 23:34N 47°38' W 003°22'9 8.6
2015-May-28 22:34N 47°30' W 003°24'9 8.7
2015-May-28 21:33N 47°22' W 003°28'7 0.4
2015-May-28 04:31N 47°15' W 003°32'9 9.1
2015-May-28 03:33N 47°23' W 003°28'9 9.3
2015-May-28 02:33N 47°32' W 003°24'9 9.5
2015-May-28 01:33N 47°41' W 003°22'2 1.9
2015-May-28 00:33N 47°43' W 003°22'9 8.8
2015-May-27 23:33N 47°35' W 003°23'9 8.9
2015-May-27 22:33N 47°26' W 003°27'8 8.2
2015-May-27 21:32N 47°18' W 003°31'2 0.1
2015-May-27 04:33N 47°16' W 003°32'9 8.7
2015-May-27 03:33N 47°24' W 003°28'9 8.9
2015-May-27 02:33N 47°33' W 003°24'9 8.9
2015-May-27 01:33N 47°41' W 003°22'2 2.3
2015-May-27 00:33N 47°44' W 003°22'6 5.7
2015-May-26 23:33N 47°38' W 003°22'9 8.8
2015-May-26 22:33N 47°30' W 003°25'8 8.5
2015-May-26 21:33N 47°22' W 003°29'6 5.2
2015-May-26 20:28N 47°17' W 003°33'2 2.8
2015-May-26 19:33N 47°14' W 003°35'4 3.7
2015-May-26 18:33N 47°11' W 003°33'10 0.7
2015-May-26 04:15N 47°20' W 003°29'7 9.5
2015-May-26 03:33N 47°26' W 003°26'9 9.2
2015-May-26 02:34N 47°35' W 003°23'9 8.7
2015-May-26 01:33N 47°44' W 003°22'4 4.1
2015-May-26 00:34N 47°40' W 003°22'9 8.8
2015-May-25 23:34N 47°31' W 003°25'9 8.7
2015-May-25 22:33N 47°23' W 003°30'7 6.7
2015-May-25 21:33N 47°17' W 003°34'3 2.7
2015-May-25 20:32N 47°14' W 003°34'4 3.4
2015-May-25 19:29N 47°11' W 003°33'2 0.8
2015-May-25 17:33N 47°09' W 003°33'2 1.4
2015-May-25 16:29N 47°11' W 003°32'5 3.5
2015-May-25 15:11N 47°10' W 003°38'11 0.9
2015-May-25 03:04N 47°20' W 003°33'4 8.8
2015-May-25 02:33N 47°24' W 003°30'9 9.0
2015-May-25 01:33N 47°32' W 003°25'9 8.7
2015-May-25 00:33N 47°41' W 003°22'1 0.0
2015-May-22 23:33N 47°42' W 003°22'9 8.5
2015-May-22 22:33N 47°33' W 003°24'3 0.1
2015-May-21 10:10N 47°30' W 003°25'6 9.5
2015-May-21 09:33N 47°36' W 003°23'8 8.3
2015-May-21 08:33N 47°44' W 003°22'0 0.0
2015-May-21 07:33N 47°44' W 003°22'0 0.0
2015-May-21 06:33N 47°44' W 003°22'0 0.0
2015-May-21 05:33N 47°44' W 003°22'0 0.0
2015-May-21 04:33N 47°44' W 003°22'0 0.0
2015-May-21 03:33N 47°44' W 003°22'0 0.2
2015-May-21 02:33N 47°44' W 003°22'0 0.2
2015-May-21 01:33N 47°44' W 003°22'4 4.2
2015-May-21 00:33N 47°40' W 003°22'9 9.2
2015-May-20 23:33N 47°30' W 003°25'  
Track history (hours):
 
Tides and Currents Weather Stations Pressure Air Temp Water Temp Dewpoint Dewpoint Depression Visibility Wind Speed Wind Dir Waves Ship Positions

F/V Pasiphae 2

Last reported at 2015-May-30 01:34 UTC. Time now 2015-May-30 14:41 UTC.
Position N 47°44' W 003°22'.

Length 14 m.

Type: Fishing. MMSI: 228224800.

Date/timePositionNaut miles runAvg speedWind from/ knotsBaromVisibWave heightAir tempDewpointWater temp
2015-May-30 01:34N 47°44' W 003°22'0 0.1
2015-May-30 00:33N 47°44' W 003°22'2 1.6
2015-May-29 23:33N 47°42' W 003°22'9 8.7
2015-May-29 22:34N 47°34' W 003°23'8 8.4
2015-May-29 21:34N 47°25' W 003°24'5 0.3
2015-May-29 03:32N 47°22' W 003°29'9 9.2
2015-May-29 02:33N 47°30' W 003°25'9 9.2
2015-May-29 01:33N 47°39' W 003°22'4 4.5
2015-May-29 00:33N 47°44' W 003°22'5 5.3
2015-May-28 23:34N 47°38' W 003°22'9 8.6
2015-May-28 22:34N 47°30' W 003°24'9 8.7
2015-May-28 21:33N 47°22' W 003°28'7 0.4
2015-May-28 04:31N 47°15' W 003°32'9 9.1
2015-May-28 03:33N 47°23' W 003°28'9 9.3
2015-May-28 02:33N 47°32' W 003°24'9 9.5
2015-May-28 01:33N 47°41' W 003°22'2 1.9
2015-May-28 00:33N 47°43' W 003°22'9 8.8
2015-May-27 23:33N 47°35' W 003°23'9 8.9
2015-May-27 22:33N 47°26' W 003°27'8 8.2
2015-May-27 21:32N 47°18' W 003°31'2 0.1
2015-May-27 04:33N 47°16' W 003°32'9 8.7
2015-May-27 03:33N 47°24' W 003°28'9 8.9
2015-May-27 02:33N 47°33' W 003°24'9 8.9
2015-May-27 01:33N 47°41' W 003°22'2 2.3
2015-May-27 00:33N 47°44' W 003°22'6 5.7
2015-May-26 23:33N 47°38' W 003°22'9 8.8
2015-May-26 22:33N 47°30' W 003°25'8 8.5
2015-May-26 21:33N 47°22' W 003°29'6 5.2
2015-May-26 20:28N 47°17' W 003°33'2 2.8
2015-May-26 19:33N 47°14' W 003°35'4 3.7
2015-May-26 18:33N 47°11' W 003°33'10 0.7
2015-May-26 04:15N 47°20' W 003°29'7 9.5
2015-May-26 03:33N 47°26' W 003°26'9 9.2
2015-May-26 02:34N 47°35' W 003°23'9 8.7
2015-May-26 01:33N 47°44' W 003°22'4 4.1
2015-May-26 00:34N 47°40' W 003°22'9 8.8
2015-May-25 23:34N 47°31' W 003°25'9 8.7
2015-May-25 22:33N 47°23' W 003°30'7 6.7
2015-May-25 21:33N 47°17' W 003°34'3 2.7
2015-May-25 20:32N 47°14' W 003°34'4 3.4
2015-May-25 19:29N 47°11' W 003°33'2 0.8
2015-May-25 17:33N 47°09' W 003°33'2 1.4
2015-May-25 16:29N 47°11' W 003°32'5 3.5
2015-May-25 15:11N 47°10' W 003°38'11 0.9
2015-May-25 03:04N 47°20' W 003°33'4 8.8
2015-May-25 02:33N 47°24' W 003°30'9 9.0
2015-May-25 01:33N 47°32' W 003°25'9 8.7
2015-May-25 00:33N 47°41' W 003°22'1 0.0
2015-May-22 23:33N 47°42' W 003°22'9 8.5
2015-May-22 22:33N 47°33' W 003°24'3 0.1
2015-May-21 10:10N 47°30' W 003°25'6 9.5
2015-May-21 09:33N 47°36' W 003°23'8 8.3
2015-May-21 08:33N 47°44' W 003°22'0 0.0
2015-May-21 07:33N 47°44' W 003°22'0 0.0
2015-May-21 06:33N 47°44' W 003°22'0 0.0
2015-May-21 05:33N 47°44' W 003°22'0 0.0
2015-May-21 04:33N 47°44' W 003°22'0 0.0
2015-May-21 03:33N 47°44' W 003°22'0 0.2
2015-May-21 02:33N 47°44' W 003°22'0 0.2
2015-May-21 01:33N 47°44' W 003°22'4 4.2
2015-May-21 00:33N 47°40' W 003°22'9 9.2
2015-May-20 23:33N 47°30' W 003°25'  

Dump ship's entire track history